createdAt,value
2023-05-20T00:00:13.925Z,17.85
2023-05-20T00:03:03.046Z,17.79
2023-05-20T00:05:32.210Z,17.77
2023-05-20T00:08:04.160Z,17.76
2023-05-20T00:10:33.110Z,17.76
2023-05-20T00:13:02.181Z,17.72
2023-05-20T00:15:32.656Z,17.57
2023-05-20T00:18:03.454Z,17.44
2023-05-20T00:20:33.611Z,17.39
2023-05-20T00:23:02.545Z,17.33
2023-05-20T00:25:32.020Z,17.28
2023-05-20T00:28:01.352Z,17.24
2023-05-20T00:30:30.620Z,17.18
2023-05-20T00:32:59.779Z,17.12
2023-05-20T00:35:29.377Z,17.11
2023-05-20T00:37:58.499Z,17.09
2023-05-20T00:40:27.484Z,17.02
2023-05-20T00:42:56.591Z,17.01
2023-05-20T00:45:25.866Z,17.01
2023-05-20T00:47:59.147Z,16.98
2023-05-20T00:50:28.547Z,16.92
2023-05-20T00:52:58.297Z,16.88
2023-05-20T00:55:27.293Z,16.84
2023-05-20T00:57:56.557Z,16.84
2023-05-20T01:00:25.460Z,16.81
2023-05-20T01:02:56.714Z,16.82
2023-05-20T01:05:26.006Z,16.81
2023-05-20T01:07:55.422Z,16.80
2023-05-20T01:10:29.439Z,16.79
2023-05-20T01:13:03.769Z,16.77
2023-05-20T01:15:33.712Z,16.73
2023-05-20T01:18:06.911Z,16.70
2023-05-20T01:20:37.271Z,16.68
2023-05-20T01:23:06.317Z,16.70
2023-05-20T01:25:35.440Z,16.71
2023-05-20T01:28:05.464Z,16.71
2023-05-20T01:30:40.883Z,16.69
2023-05-20T01:33:12.549Z,16.70
2023-05-20T01:35:42.932Z,16.73
2023-05-20T01:38:13.839Z,16.69
2023-05-20T01:40:43.275Z,16.66
2023-05-20T01:43:13.416Z,16.63
2023-05-20T01:45:43.653Z,16.64
2023-05-20T01:48:13.081Z,16.64
2023-05-20T01:50:42.382Z,16.61
2023-05-20T01:53:12.848Z,16.63
2023-05-20T01:55:42.132Z,16.68
2023-05-20T01:58:11.247Z,16.70
2023-05-20T02:00:40.504Z,16.70
2023-05-20T02:03:09.591Z,16.68
2023-05-20T02:05:38.981Z,16.61
2023-05-20T02:08:08.536Z,16.54
2023-05-20T02:10:37.726Z,16.48
2023-05-20T02:13:06.778Z,16.41
2023-05-20T02:15:36.205Z,16.37
2023-05-20T02:18:07.819Z,16.38
2023-05-20T02:20:37.427Z,16.39
2023-05-20T02:23:06.366Z,16.41
2023-05-20T02:25:35.838Z,16.42
2023-05-20T02:28:10.080Z,16.40
2023-05-20T02:30:39.428Z,16.37
2023-05-20T02:33:09.201Z,16.33
2023-05-20T02:35:38.386Z,16.32
2023-05-20T02:38:07.486Z,16.29
2023-05-20T02:40:37.094Z,16.26
2023-05-20T02:43:06.199Z,16.23
2023-05-20T02:45:35.679Z,16.19
2023-05-20T02:48:05.338Z,16.14
2023-05-20T02:50:34.291Z,16.11
2023-05-20T02:53:03.204Z,16.10
2023-05-20T02:55:35.727Z,16.04
2023-05-20T02:58:04.816Z,15.99
2023-05-20T03:00:40.015Z,15.96
2023-05-20T03:03:10.228Z,15.93
2023-05-20T03:05:39.698Z,15.90
2023-05-20T03:08:10.280Z,15.91
2023-05-20T03:10:39.481Z,15.92
2023-05-20T03:13:10.764Z,15.92
2023-05-20T03:15:39.966Z,15.92
2023-05-20T03:18:09.281Z,15.92
2023-05-20T03:20:38.454Z,15.91
2023-05-20T03:23:08.182Z,15.90
2023-05-20T03:25:37.644Z,15.87
2023-05-20T03:28:06.952Z,15.85
2023-05-20T03:30:36.092Z,15.86
2023-05-20T03:33:05.692Z,15.86
2023-05-20T03:35:35.037Z,15.86
2023-05-20T03:38:04.120Z,15.87
2023-05-20T03:40:33.377Z,15.88
2023-05-20T03:43:02.516Z,15.90
2023-05-20T03:45:33.388Z,15.91
2023-05-20T03:48:03.605Z,15.91
2023-05-20T03:50:32.960Z,15.92
2023-05-20T03:53:01.921Z,15.94
2023-05-20T03:55:31.947Z,15.95
2023-05-20T03:58:01.217Z,15.98
2023-05-20T04:00:31.219Z,16.00
2023-05-20T04:03:00.797Z,16.02
2023-05-20T04:05:29.810Z,16.05
2023-05-20T04:07:58.814Z,16.07
2023-05-20T04:10:27.786Z,16.09
2023-05-20T04:12:56.918Z,16.10
2023-05-20T04:15:25.826Z,16.11
2023-05-20T04:17:55.193Z,16.10
2023-05-20T04:20:24.422Z,16.10
2023-05-20T04:22:54.601Z,16.14
2023-05-20T04:25:23.721Z,16.17
2023-05-20T04:27:53.602Z,16.21
2023-05-20T04:30:23.099Z,16.23
2023-05-20T04:32:53.155Z,16.26
2023-05-20T04:35:25.436Z,16.29
2023-05-20T04:37:54.901Z,16.34
2023-05-20T04:40:23.907Z,16.42
2023-05-20T04:42:52.963Z,16.48
2023-05-20T04:45:23.094Z,16.57
2023-05-20T04:47:52.762Z,16.67
2023-05-20T04:50:21.898Z,16.76
2023-05-20T04:52:53.833Z,16.84
2023-05-20T04:55:24.538Z,16.92
2023-05-20T04:57:53.585Z,16.98
2023-05-20T05:00:23.103Z,17.07
2023-05-20T05:02:52.127Z,17.13
2023-05-20T05:05:21.182Z,17.18
2023-05-20T05:07:50.263Z,17.27
2023-05-20T05:10:19.469Z,17.35
2023-05-20T05:12:48.335Z,17.46
2023-05-20T05:15:17.596Z,17.58
2023-05-20T05:17:46.857Z,17.71
2023-05-20T05:20:16.014Z,17.83
2023-05-20T05:22:45.289Z,17.94
2023-05-20T05:25:14.611Z,18.02
2023-05-20T05:27:44.077Z,18.09
2023-05-20T05:30:13.563Z,18.16
2023-05-20T05:32:42.788Z,18.22
2023-05-20T05:35:12.305Z,18.26
2023-05-20T05:37:41.515Z,18.30
2023-05-20T05:40:12.057Z,18.41
2023-05-20T05:42:41.128Z,18.50
2023-05-20T05:45:12.097Z,18.62
2023-05-20T05:47:41.532Z,18.71
2023-05-20T05:50:11.291Z,18.82
2023-05-20T05:52:40.770Z,18.92
2023-05-20T05:55:11.697Z,19.04
2023-05-20T05:57:40.642Z,19.12
2023-05-20T06:00:11.677Z,19.21
2023-05-20T06:02:40.897Z,19.31
2023-05-20T06:05:11.100Z,19.40
2023-05-20T06:07:40.034Z,19.50
2023-05-20T06:10:11.036Z,19.58
2023-05-20T06:12:39.992Z,19.66
2023-05-20T06:15:11.066Z,19.79
2023-05-20T06:17:40.115Z,19.95
2023-05-20T06:20:10.693Z,20.09
2023-05-20T06:22:39.683Z,20.22
2023-05-20T06:25:11.013Z,20.30
2023-05-20T06:27:39.925Z,20.40
2023-05-20T06:30:10.657Z,20.49
2023-05-20T06:32:39.646Z,20.60
2023-05-20T06:35:10.862Z,20.77
2023-05-20T06:37:40.083Z,20.88
2023-05-20T06:40:11.496Z,20.90
2023-05-20T06:42:40.325Z,20.91
2023-05-20T06:45:10.944Z,20.92
2023-05-20T06:47:40.331Z,20.93
2023-05-20T06:50:11.107Z,20.98
2023-05-20T06:52:40.178Z,21.01
2023-05-20T06:55:11.034Z,21.01
2023-05-20T06:57:40.010Z,21.00
2023-05-20T07:00:11.695Z,20.97
2023-05-20T07:02:41.921Z,20.95
2023-05-20T07:05:12.185Z,21.00
2023-05-20T07:07:41.191Z,21.11
2023-05-20T07:10:11.206Z,21.14
2023-05-20T07:12:40.584Z,21.09
2023-05-20T07:15:11.319Z,21.04
2023-05-20T07:17:40.370Z,20.99
2023-05-20T07:20:10.634Z,20.94
2023-05-20T07:22:39.727Z,20.97
2023-05-20T07:25:11.396Z,21.05
2023-05-20T07:27:40.598Z,21.14
2023-05-20T07:30:10.589Z,21.18
2023-05-20T07:32:39.711Z,21.22
2023-05-20T07:35:09.913Z,21.33
2023-05-20T07:37:38.890Z,21.46
2023-05-20T07:40:10.592Z,21.61
2023-05-20T07:42:39.643Z,21.80
2023-05-20T07:45:10.568Z,21.91
2023-05-20T07:47:39.946Z,21.99
2023-05-20T07:50:10.223Z,22.07
2023-05-20T07:52:54.591Z,22.14
2023-05-20T07:55:25.097Z,22.21
2023-05-20T07:57:54.155Z,22.27
2023-05-20T08:00:23.465Z,22.33
2023-05-20T08:02:52.489Z,22.38
2023-05-20T08:05:22.332Z,22.45
2023-05-20T08:07:51.261Z,22.51
2023-05-20T08:10:20.666Z,22.56
2023-05-20T08:12:49.704Z,22.66
2023-05-20T08:15:18.944Z,22.80
2023-05-20T08:17:47.864Z,23.04
2023-05-20T08:20:17.891Z,23.23
2023-05-20T08:22:46.883Z,23.42
2023-05-20T08:25:15.909Z,23.66
2023-05-20T08:27:44.994Z,24.04
2023-05-20T08:30:14.481Z,24.45
2023-05-20T08:32:43.625Z,24.66
2023-05-20T08:35:12.911Z,24.76
2023-05-20T08:37:42.115Z,24.83
2023-05-20T08:40:13.622Z,24.92
2023-05-20T08:42:43.337Z,25.10
2023-05-20T08:45:15.707Z,25.42
2023-05-20T08:47:45.568Z,25.77
2023-05-20T08:50:15.998Z,26.12
2023-05-20T08:52:46.732Z,26.50
2023-05-20T08:55:22.381Z,26.77
2023-05-20T08:57:53.915Z,26.96
2023-05-20T09:00:28.317Z,27.01
2023-05-20T09:03:00.897Z,27.01
2023-05-20T09:05:30.166Z,26.87
2023-05-20T09:08:07.051Z,26.87
2023-05-20T09:10:37.079Z,27.03
2023-05-20T09:13:07.310Z,27.20
2023-05-20T09:15:37.355Z,27.37
2023-05-20T09:18:08.120Z,27.53
2023-05-20T09:20:38.214Z,27.69
2023-05-20T09:23:08.767Z,27.92
2023-05-20T09:25:38.617Z,28.11
2023-05-20T09:28:08.765Z,28.32
2023-05-20T09:30:37.993Z,28.57
2023-05-20T09:33:08.867Z,28.81
2023-05-20T09:35:37.981Z,29.00
2023-05-20T09:38:09.399Z,29.16
2023-05-20T09:40:39.808Z,29.25
2023-05-20T09:43:10.691Z,29.22
2023-05-20T09:45:39.770Z,29.34
2023-05-20T09:48:10.892Z,29.57
2023-05-20T09:50:41.023Z,29.67
2023-05-20T09:53:11.726Z,29.45
2023-05-20T09:55:41.578Z,29.40
2023-05-20T09:58:14.782Z,29.14
2023-05-20T10:00:45.911Z,28.60
2023-05-20T10:03:15.090Z,28.33
2023-05-20T10:05:57.456Z,28.33
2023-05-20T10:09:03.625Z,28.19
2023-05-20T10:11:41.891Z,27.70
2023-05-20T10:14:26.213Z,27.77
2023-05-20T10:17:09.535Z,27.93
2023-05-20T10:19:39.239Z,27.97
2023-05-20T10:22:10.047Z,28.01
2023-05-20T10:24:40.944Z,28.11
2023-05-20T10:27:11.311Z,28.21
2023-05-20T10:29:51.913Z,28.37
2023-05-20T10:32:28.261Z,28.50
2023-05-20T10:35:01.400Z,28.28
2023-05-20T10:37:32.602Z,27.90
2023-05-20T10:40:08.479Z,27.82
2023-05-20T10:42:37.533Z,28.04
2023-05-20T10:45:09.051Z,28.27
2023-05-20T10:47:42.312Z,28.39
2023-05-20T10:50:28.645Z,28.44
2023-05-20T10:53:04.820Z,28.49
2023-05-20T10:55:38.255Z,28.44
2023-05-20T10:58:07.819Z,28.22
2023-05-20T11:00:37.749Z,28.17
2023-05-20T11:03:07.993Z,28.05
2023-05-20T11:05:39.000Z,27.66
2023-05-20T11:08:20.550Z,27.31
2023-05-20T11:10:58.071Z,27.02
2023-05-20T11:13:27.537Z,26.89
2023-05-20T11:15:57.599Z,26.79
2023-05-20T11:18:30.022Z,26.82
2023-05-20T11:20:59.757Z,26.94
2023-05-20T11:23:29.684Z,26.99
2023-05-20T11:25:58.913Z,26.98
2023-05-20T11:28:27.749Z,26.86
2023-05-20T11:30:56.839Z,26.84
2023-05-20T11:33:27.378Z,26.80
2023-05-20T11:35:57.110Z,26.74
2023-05-20T11:38:26.027Z,26.68
2023-05-20T11:40:56.100Z,26.60
2023-05-20T11:43:25.656Z,26.47
2023-05-20T11:45:56.202Z,26.41
2023-05-20T11:48:26.064Z,26.45
2023-05-20T11:50:56.434Z,26.53
2023-05-20T11:53:26.011Z,26.56
2023-05-20T11:55:56.290Z,26.58
2023-05-20T11:58:26.370Z,26.60
2023-05-20T12:01:02.358Z,26.65
2023-05-20T12:03:38.776Z,26.69
2023-05-20T12:06:07.790Z,26.71
2023-05-20T12:08:37.028Z,26.75
2023-05-20T12:11:05.992Z,26.80
2023-05-20T12:13:35.610Z,26.80
2023-05-20T12:16:05.731Z,26.68
2023-05-20T12:18:34.821Z,26.57
2023-05-20T12:21:03.749Z,26.57
2023-05-20T12:23:33.560Z,26.60
2023-05-20T12:26:02.540Z,26.60
2023-05-20T12:28:32.757Z,26.49
2023-05-20T12:31:01.868Z,26.32
2023-05-20T12:33:30.870Z,26.20
2023-05-20T12:36:00.140Z,26.13
2023-05-20T12:38:29.233Z,26.15
2023-05-20T12:40:58.265Z,26.19
2023-05-20T12:43:27.160Z,26.18
2023-05-20T12:45:56.463Z,26.10
2023-05-20T12:48:25.576Z,26.06
2023-05-20T12:50:54.825Z,26.07
2023-05-20T12:53:23.705Z,26.11
2023-05-20T12:55:52.814Z,26.08
2023-05-20T12:58:21.867Z,26.07
2023-05-20T13:00:51.016Z,26.10
2023-05-20T13:03:20.157Z,26.14
2023-05-20T13:05:49.079Z,26.12
2023-05-20T13:08:17.891Z,26.08
2023-05-20T13:10:46.761Z,25.96
2023-05-20T13:13:20.757Z,25.79
2023-05-20T13:15:49.845Z,25.64
2023-05-20T13:18:19.476Z,25.46
2023-05-20T13:20:48.499Z,25.32
2023-05-20T13:23:17.330Z,25.16
2023-05-20T13:25:46.308Z,25.01
2023-05-20T13:28:18.283Z,24.90
2023-05-20T13:30:47.455Z,24.82
2023-05-20T13:33:16.573Z,24.76
2023-05-20T13:35:45.636Z,24.71
2023-05-20T13:38:14.484Z,24.66
2023-05-20T13:40:43.536Z,24.62
2023-05-20T13:43:12.496Z,24.57
2023-05-20T13:45:42.616Z,24.56
2023-05-20T13:48:11.676Z,24.55
2023-05-20T13:50:41.078Z,24.57
2023-05-20T13:53:11.956Z,24.59
2023-05-20T13:55:41.777Z,24.58
2023-05-20T13:58:10.809Z,24.60
2023-05-20T14:00:40.067Z,24.61
2023-05-20T14:03:09.743Z,24.64
2023-05-20T14:05:40.152Z,24.63
2023-05-20T14:08:09.095Z,24.61
2023-05-20T14:10:38.196Z,24.58
2023-05-20T14:13:08.876Z,24.54
2023-05-20T14:15:37.866Z,24.49
2023-05-20T14:18:06.906Z,24.46
2023-05-20T14:20:36.133Z,24.47
2023-05-20T14:23:05.459Z,24.48
2023-05-20T14:25:34.436Z,24.47
2023-05-20T14:28:03.762Z,24.47
2023-05-20T14:30:33.243Z,24.46
2023-05-20T14:33:02.448Z,24.39
2023-05-20T14:35:31.482Z,24.36
2023-05-20T14:38:00.900Z,24.32
2023-05-20T14:40:30.125Z,24.25
2023-05-20T14:42:59.267Z,24.23
2023-05-20T14:45:28.646Z,24.24
2023-05-20T14:47:57.817Z,24.19
2023-05-20T14:50:27.012Z,24.12
2023-05-20T14:52:56.010Z,24.10
2023-05-20T14:55:25.158Z,24.07
2023-05-20T14:57:54.282Z,24.00
2023-05-20T15:00:23.315Z,23.97
2023-05-20T15:02:52.507Z,23.96
2023-05-20T15:05:21.563Z,23.93
2023-05-20T15:07:51.024Z,23.90
2023-05-20T15:10:20.132Z,23.87
2023-05-20T15:12:49.309Z,23.86
2023-05-20T15:15:18.521Z,23.86
2023-05-20T15:17:47.488Z,23.86
2023-05-20T15:20:16.695Z,23.85
2023-05-20T15:22:47.251Z,23.85
2023-05-20T15:25:16.690Z,23.84
2023-05-20T15:27:45.785Z,23.84
2023-05-20T15:30:16.595Z,23.90
2023-05-20T15:32:45.582Z,23.90
2023-05-20T15:35:14.739Z,23.90
2023-05-20T15:37:43.855Z,23.92
2023-05-20T15:40:13.508Z,23.96
2023-05-20T15:42:42.665Z,24.01
2023-05-20T15:45:12.291Z,24.06
2023-05-20T15:47:42.730Z,24.06
2023-05-20T15:50:12.316Z,24.07
2023-05-20T15:52:41.379Z,24.07
2023-05-20T15:55:11.349Z,24.05
2023-05-20T15:57:40.297Z,24.05
2023-05-20T16:00:11.738Z,24.02
2023-05-20T16:02:42.341Z,23.96
2023-05-20T16:05:11.848Z,23.88
2023-05-20T16:07:41.514Z,23.80
2023-05-20T16:10:11.562Z,23.72
2023-05-20T16:12:40.704Z,23.62
2023-05-20T16:15:11.446Z,23.56
2023-05-20T16:17:40.713Z,23.48
2023-05-20T16:20:11.407Z,23.43
2023-05-20T16:22:41.089Z,23.35
2023-05-20T16:25:11.093Z,23.28
2023-05-20T16:27:40.011Z,23.22
2023-05-20T16:30:11.644Z,23.15
2023-05-20T16:32:41.101Z,23.05
2023-05-20T16:35:10.869Z,22.97
2023-05-20T16:37:39.957Z,22.92
2023-05-20T16:40:10.607Z,22.83
2023-05-20T16:42:39.461Z,22.75
2023-05-20T16:45:10.343Z,22.70
2023-05-20T16:47:39.346Z,22.63
2023-05-20T16:50:13.348Z,22.57
2023-05-20T16:52:42.474Z,22.48
2023-05-20T16:55:13.076Z,22.38
2023-05-20T16:57:42.761Z,22.32
2023-05-20T17:00:13.530Z,22.25
2023-05-20T17:02:42.458Z,22.18
2023-05-20T17:05:11.707Z,22.11
2023-05-20T17:07:40.681Z,22.04
2023-05-20T17:10:11.004Z,22.00
2023-05-20T17:12:40.040Z,21.97
2023-05-20T17:15:10.509Z,21.92
2023-05-20T17:17:39.601Z,21.87
2023-05-20T17:20:10.896Z,21.83
2023-05-20T17:22:40.057Z,21.79
2023-05-20T17:25:10.402Z,21.72
2023-05-20T17:27:39.439Z,21.67
2023-05-20T17:30:09.740Z,21.62
2023-05-20T17:32:39.984Z,21.59
2023-05-20T17:35:09.953Z,21.57
2023-05-20T17:37:38.984Z,21.56
2023-05-20T17:40:10.644Z,21.54
2023-05-20T17:42:39.836Z,21.51
2023-05-20T17:45:10.750Z,21.47
2023-05-20T17:47:39.958Z,21.45
2023-05-20T17:50:10.754Z,21.41
2023-05-20T17:52:39.611Z,21.37
2023-05-20T17:55:09.480Z,21.34
2023-05-20T17:57:38.553Z,21.29
2023-05-20T18:00:10.428Z,21.23
2023-05-20T18:02:46.720Z,21.19
2023-05-20T18:05:16.641Z,21.15
2023-05-20T18:07:45.667Z,21.11
2023-05-20T18:10:14.659Z,21.09
2023-05-20T18:12:44.841Z,21.07
2023-05-20T18:15:13.951Z,21.04
2023-05-20T18:17:44.186Z,21.00
2023-05-20T18:20:14.734Z,20.95
2023-05-20T18:22:45.153Z,20.90
2023-05-20T18:25:14.899Z,20.85
2023-05-20T18:27:44.144Z,20.81
2023-05-20T18:30:13.373Z,20.77
2023-05-20T18:32:42.482Z,20.71
2023-05-20T18:35:11.746Z,20.66
2023-05-20T18:37:41.102Z,20.61
2023-05-20T18:40:12.006Z,20.55
2023-05-20T18:42:40.971Z,20.53
2023-05-20T18:45:11.690Z,20.49
2023-05-20T18:47:40.913Z,20.46
2023-05-20T18:50:11.552Z,20.41
2023-05-20T18:52:40.881Z,20.37
2023-05-20T18:55:10.413Z,20.33
2023-05-20T18:57:39.541Z,20.31
2023-05-20T19:00:11.586Z,20.26
2023-05-20T19:02:41.419Z,20.22
2023-05-20T19:05:11.885Z,20.19
2023-05-20T19:07:40.902Z,20.13
2023-05-20T19:10:11.116Z,20.10
2023-05-20T19:12:39.929Z,20.07
2023-05-20T19:15:11.013Z,20.05
2023-05-20T19:17:40.183Z,20.01
2023-05-20T19:20:10.880Z,20.00
2023-05-20T19:22:39.756Z,19.97
2023-05-20T19:25:09.895Z,19.94
2023-05-20T19:27:38.908Z,19.92
2023-05-20T19:30:11.134Z,19.92
2023-05-20T19:32:40.328Z,19.88
2023-05-20T19:35:10.156Z,19.87
2023-05-20T19:37:39.166Z,19.86
2023-05-20T19:40:10.426Z,19.86
2023-05-20T19:42:39.487Z,19.86
2023-05-20T19:45:10.735Z,19.84
2023-05-20T19:47:39.979Z,19.83
2023-05-20T19:50:10.691Z,19.82
2023-05-20T19:52:40.684Z,19.81
2023-05-20T19:55:10.610Z,19.79
2023-05-20T19:57:39.539Z,19.78
2023-05-20T20:00:10.854Z,19.75
2023-05-20T20:02:40.444Z,19.72
2023-05-20T20:05:10.401Z,19.70
2023-05-20T20:07:39.487Z,19.69
2023-05-20T20:10:10.489Z,19.67
2023-05-20T20:12:39.499Z,19.67
2023-05-20T20:15:11.054Z,19.65
2023-05-20T20:17:44.703Z,19.62
2023-05-20T20:20:14.738Z,19.58
2023-05-20T20:22:43.842Z,19.56
2023-05-20T20:25:13.768Z,19.54
2023-05-20T20:27:43.437Z,19.52
2023-05-20T20:30:14.538Z,19.50
2023-05-20T20:32:43.626Z,19.48
2023-05-20T20:35:12.758Z,19.46
2023-05-20T20:37:41.638Z,19.44
2023-05-20T20:40:12.740Z,19.43
2023-05-20T20:42:44.197Z,19.41
2023-05-20T20:45:14.676Z,19.38
2023-05-20T20:47:44.026Z,19.35
2023-05-20T20:50:13.228Z,19.33
2023-05-20T20:52:42.910Z,19.33
2023-05-20T20:55:12.119Z,19.32
2023-05-20T20:57:41.456Z,19.32
2023-05-20T21:00:16.978Z,19.33
2023-05-20T21:02:45.053Z,19.34
2023-05-20T21:05:16.324Z,19.34
2023-05-20T21:07:49.258Z,19.34
2023-05-20T21:10:18.709Z,19.34
2023-05-20T21:12:47.728Z,19.34
2023-05-20T21:15:17.069Z,19.33
2023-05-20T21:17:46.207Z,19.31
2023-05-20T21:20:15.411Z,19.28
2023-05-20T21:22:44.525Z,19.28
2023-05-20T21:25:13.734Z,19.24
2023-05-20T21:27:42.762Z,19.22
2023-05-20T21:30:12.627Z,19.20
2023-05-20T21:32:41.811Z,19.17
2023-05-20T21:35:11.169Z,19.14
2023-05-20T21:37:40.307Z,19.12
2023-05-20T21:40:10.977Z,19.11
2023-05-20T21:42:39.887Z,19.08
2023-05-20T21:45:10.982Z,19.06
2023-05-20T21:47:40.068Z,19.03
2023-05-20T21:50:11.081Z,18.99
2023-05-20T21:52:40.002Z,18.95
2023-05-20T21:55:10.626Z,18.90
2023-05-20T21:57:39.645Z,18.87
2023-05-20T22:00:14.166Z,18.82
2023-05-20T22:02:43.503Z,18.77
2023-05-20T22:05:12.986Z,18.71
2023-05-20T22:07:43.784Z,18.68
2023-05-20T22:10:13.654Z,18.66
2023-05-20T22:12:42.874Z,18.63
2023-05-20T22:15:12.567Z,18.61
2023-05-20T22:17:41.804Z,18.58
2023-05-20T22:20:13.189Z,18.55
2023-05-20T22:22:42.417Z,18.52
2023-05-20T22:25:12.131Z,18.45
2023-05-20T22:27:42.299Z,18.45
2023-05-20T22:30:12.870Z,18.40
2023-05-20T22:32:42.071Z,18.40
2023-05-20T22:35:12.656Z,18.38
2023-05-20T22:37:41.539Z,18.34
2023-05-20T22:40:11.627Z,18.31
2023-05-20T22:42:40.631Z,18.25
2023-05-20T22:45:11.186Z,18.25
2023-05-20T22:47:40.338Z,18.22
2023-05-20T22:50:13.017Z,18.19
2023-05-20T22:52:42.418Z,18.18
2023-05-20T22:55:12.030Z,18.17
2023-05-20T22:57:41.041Z,18.16
2023-05-20T23:00:14.905Z,18.14
2023-05-20T23:02:45.119Z,18.12
2023-05-20T23:05:14.115Z,18.10
2023-05-20T23:07:44.301Z,18.09
2023-05-20T23:10:13.236Z,18.09
2023-05-20T23:12:42.190Z,18.08
2023-05-20T23:15:12.441Z,18.07
2023-05-20T23:17:41.520Z,18.03
2023-05-20T23:20:13.616Z,18.03
2023-05-20T23:22:42.562Z,18.02
2023-05-20T23:25:11.835Z,18.00
2023-05-20T23:27:40.785Z,17.99
2023-05-20T23:30:10.994Z,17.97
2023-05-20T23:32:40.059Z,17.93
2023-05-20T23:35:12.539Z,17.95
2023-05-20T23:37:41.494Z,17.94
2023-05-20T23:40:11.789Z,17.91
2023-05-20T23:42:40.920Z,17.87
2023-05-20T23:45:12.152Z,17.84
2023-05-20T23:47:41.518Z,17.80
2023-05-20T23:50:13.182Z,17.77
2023-05-20T23:52:42.178Z,17.74
2023-05-20T23:55:12.336Z,17.70
2023-05-20T23:57:41.426Z,17.67
